KAND/AND METAR and TAF weather

Enter ICAO airport designator
Station Type Date Time Source
KAND METAR 2019/07/20 04:56 UTC NOAA

KAND 200456Z AUTO 25003KT 10SM CLR 23/22 A3006 RMK AO2 SLP168 T02330217 403500222


Station Type Date Time Source
KAND Decoded METAR 2019/07/20 04:56 UTC NOAA

ANDERSON COUNTY AIRPORT, SC, United States (KAND) 34-30N 82-43W 239M
Jul 20, 2019 - 12:56 AM EDT / 2019.07.20 0456 UTC
Wind: from the WSW (250 degrees) at 3 MPH (3 KT):0
Visibility: 10 mile(s):0
Sky conditions: clear
Temperature: 73.9 F (23.3 C)
Dew Point: 71.1 F (21.7 C)
Relative Humidity: 90%
Pressure (altimeter): 30.06 in. Hg (1017 hPa)
ob: KAND 200456Z AUTO 25003KT 10SM CLR 23/22 A3006 RMK AO2 SLP168 T02330217 403500222
cycle: 5

Station Type Date Time Source
KAND TAF 2019/07/19 22:51 UTC NOAA

TAF
AMD KAND 192148Z 1922/2018 VRB05KT P6SM VCSH SCT050 BKN150
FM200000 24003KT P6SM FEW060 BKN250
FM201600 22005KT P6SM SCT060 BKN250

Example: see airport list